sensor_id;sensor_type;location;lat;lon;timestamp;temperature;humidity
19050;DHT22;9657;45.940;12.840;2023-02-11T00:00:40;8.70;65.80
19050;DHT22;9657;45.940;12.840;2023-02-11T00:03:08;8.70;65.80
19050;DHT22;9657;45.940;12.840;2023-02-11T00:05:35;8.70;65.70
19050;DHT22;9657;45.940;12.840;2023-02-11T00:08:02;8.70;65.80
19050;DHT22;9657;45.940;12.840;2023-02-11T00:10:29;8.70;65.80
19050;DHT22;9657;45.940;12.840;2023-02-11T00:12:57;8.70;65.70
19050;DHT22;9657;45.940;12.840;2023-02-11T00:15:24;8.60;65.60
19050;DHT22;9657;45.940;12.840;2023-02-11T00:17:51;8.70;65.60
19050;DHT22;9657;45.940;12.840;2023-02-11T00:20:18;8.60;65.50
19050;DHT22;9657;45.940;12.840;2023-02-11T00:22:45;8.60;65.50
19050;DHT22;9657;45.940;12.840;2023-02-11T00:25:12;8.60;65.50
19050;DHT22;9657;45.940;12.840;2023-02-11T00:27:39;8.60;65.50
19050;DHT22;9657;45.940;12.840;2023-02-11T00:30:09;8.60;65.40
19050;DHT22;9657;45.940;12.840;2023-02-11T00:32:37;8.70;65.50
19050;DHT22;9657;45.940;12.840;2023-02-11T00:35:04;8.60;65.40
19050;DHT22;9657;45.940;12.840;2023-02-11T00:37:31;8.60;65.50
19050;DHT22;9657;45.940;12.840;2023-02-11T00:40:01;8.60;65.40
19050;DHT22;9657;45.940;12.840;2023-02-11T00:42:28;8.60;65.40
19050;DHT22;9657;45.940;12.840;2023-02-11T00:44:55;8.60;65.40
19050;DHT22;9657;45.940;12.840;2023-02-11T00:47:23;8.60;65.40
19050;DHT22;9657;45.940;12.840;2023-02-11T00:49:50;8.60;65.20
19050;DHT22;9657;45.940;12.840;2023-02-11T00:52:17;8.60;66.00
19050;DHT22;9657;45.940;12.840;2023-02-11T00:54:44;8.60;65.30
19050;DHT22;9657;45.940;12.840;2023-02-11T00:57:11;8.60;65.10
19050;DHT22;9657;45.940;12.840;2023-02-11T00:59:38;8.70;65.30
19050;DHT22;9657;45.940;12.840;2023-02-11T01:02:05;8.60;65.20
19050;DHT22;9657;45.940;12.840;2023-02-11T01:04:34;8.60;65.10
19050;DHT22;9657;45.940;12.840;2023-02-11T01:07:01;8.60;65.20
19050;DHT22;9657;45.940;12.840;2023-02-11T01:09:28;8.60;65.00
19050;DHT22;9657;45.940;12.840;2023-02-11T01:11:55;8.60;65.10
19050;DHT22;9657;45.940;12.840;2023-02-11T01:14:22;8.60;65.10
19050;DHT22;9657;45.940;12.840;2023-02-11T01:16:49;8.60;65.00
19050;DHT22;9657;45.940;12.840;2023-02-11T01:19:16;8.60;65.00
19050;DHT22;9657;45.940;12.840;2023-02-11T01:21:44;8.60;65.10
19050;DHT22;9657;45.940;12.840;2023-02-11T01:24:11;8.60;65.10
19050;DHT22;9657;45.940;12.840;2023-02-11T01:26:38;8.60;65.00
19050;DHT22;9657;45.940;12.840;2023-02-11T01:29:05;8.60;65.00
19050;DHT22;9657;45.940;12.840;2023-02-11T01:31:33;8.60;65.00
19050;DHT22;9657;45.940;12.840;2023-02-11T01:34:00;8.60;65.00
19050;DHT22;9657;45.940;12.840;2023-02-11T01:36:27;8.60;65.00
19050;DHT22;9657;45.940;12.840;2023-02-11T01:38:56;8.60;65.00
19050;DHT22;9657;45.940;12.840;2023-02-11T01:41:23;8.60;64.90
19050;DHT22;9657;45.940;12.840;2023-02-11T01:43:50;8.60;64.90
19050;DHT22;9657;45.940;12.840;2023-02-11T01:46:28;8.60;64.80
19050;DHT22;9657;45.940;12.840;2023-02-11T01:48:58;8.60;64.80
19050;DHT22;9657;45.940;12.840;2023-02-11T01:51:29;8.60;64.90
19050;DHT22;9657;45.940;12.840;2023-02-11T01:54:01;8.60;64.80
19050;DHT22;9657;45.940;12.840;2023-02-11T01:56:49;8.60;64.80
19050;DHT22;9657;45.940;12.840;2023-02-11T01:59:40;8.60;64.90
19050;DHT22;9657;45.940;12.840;2023-02-11T02:04:49;8.60;64.80
19050;DHT22;9657;45.940;12.840;2023-02-11T02:07:25;8.60;64.80
19050;DHT22;9657;45.940;12.840;2023-02-11T02:09:58;8.60;64.80
19050;DHT22;9657;45.940;12.840;2023-02-11T02:12:26;8.60;64.80
19050;DHT22;9657;45.940;12.840;2023-02-11T02:15:17;8.60;64.70
19050;DHT22;9657;45.940;12.840;2023-02-11T02:17:52;8.60;64.60
19050;DHT22;9657;45.940;12.840;2023-02-11T02:20:45;8.60;64.60
19050;DHT22;9657;45.940;12.840;2023-02-11T02:23:25;8.60;64.60
19050;DHT22;9657;45.940;12.840;2023-02-11T02:26:28;8.60;64.60
19050;DHT22;9657;45.940;12.840;2023-02-11T02:29:17;8.60;64.60
19050;DHT22;9657;45.940;12.840;2023-02-11T02:32:09;8.60;64.60
19050;DHT22;9657;45.940;12.840;2023-02-11T02:34:41;8.60;64.50
19050;DHT22;9657;45.940;12.840;2023-02-11T02:37:15;8.60;64.60
19050;DHT22;9657;45.940;12.840;2023-02-11T02:39:44;8.60;64.60
19050;DHT22;9657;45.940;12.840;2023-02-11T02:42:15;8.60;64.60
19050;DHT22;9657;45.940;12.840;2023-02-11T02:44:47;8.60;64.40
19050;DHT22;9657;45.940;12.840;2023-02-11T02:47:16;8.60;64.50
19050;DHT22;9657;45.940;12.840;2023-02-11T02:49:43;8.60;65.30
19050;DHT22;9657;45.940;12.840;2023-02-11T02:52:24;8.60;64.40
19050;DHT22;9657;45.940;12.840;2023-02-11T02:55:11;8.60;64.50
19050;DHT22;9657;45.940;12.840;2023-02-11T02:58:07;8.60;64.40
19050;DHT22;9657;45.940;12.840;2023-02-11T03:00:41;8.60;64.30
19050;DHT22;9657;45.940;12.840;2023-02-11T03:03:22;8.60;64.40
19050;DHT22;9657;45.940;12.840;2023-02-11T03:05:55;8.60;64.30
19050;DHT22;9657;45.940;12.840;2023-02-11T03:08:28;8.60;64.60
19050;DHT22;9657;45.940;12.840;2023-02-11T03:10:56;8.50;64.20
19050;DHT22;9657;45.940;12.840;2023-02-11T03:13:27;8.60;64.40
19050;DHT22;9657;45.940;12.840;2023-02-11T03:16:01;8.50;64.30
19050;DHT22;9657;45.940;12.840;2023-02-11T03:18:31;8.60;64.20
19050;DHT22;9657;45.940;12.840;2023-02-11T03:21:02;8.50;64.10
19050;DHT22;9657;45.940;12.840;2023-02-11T03:23:35;8.60;64.10
19050;DHT22;9657;45.940;12.840;2023-02-11T03:26:08;8.60;64.00
19050;DHT22;9657;45.940;12.840;2023-02-11T03:28:40;8.50;64.10
19050;DHT22;9657;45.940;12.840;2023-02-11T03:31:12;8.60;64.20
19050;DHT22;9657;45.940;12.840;2023-02-11T03:33:48;8.60;64.10
19050;DHT22;9657;45.940;12.840;2023-02-11T03:36:22;8.50;64.10
19050;DHT22;9657;45.940;12.840;2023-02-11T03:38:52;8.50;64.20
19050;DHT22;9657;45.940;12.840;2023-02-11T03:41:22;8.50;64.00
19050;DHT22;9657;45.940;12.840;2023-02-11T03:43:52;8.60;64.00
19050;DHT22;9657;45.940;12.840;2023-02-11T03:46:22;8.50;63.90
19050;DHT22;9657;45.940;12.840;2023-02-11T03:48:54;8.60;64.00
19050;DHT22;9657;45.940;12.840;2023-02-11T03:51:23;8.50;63.90
19050;DHT22;9657;45.940;12.840;2023-02-11T03:53:53;8.50;63.90
19050;DHT22;9657;45.940;12.840;2023-02-11T03:56:24;8.50;63.90
19050;DHT22;9657;45.940;12.840;2023-02-11T03:58:52;8.60;64.00
19050;DHT22;9657;45.940;12.840;2023-02-11T04:01:19;8.50;63.90
19050;DHT22;9657;45.940;12.840;2023-02-11T04:03:46;8.50;63.90
19050;DHT22;9657;45.940;12.840;2023-02-11T04:06:14;8.50;63.90
19050;DHT22;9657;45.940;12.840;2023-02-11T04:08:41;8.50;63.90
19050;DHT22;9657;45.940;12.840;2023-02-11T04:11:08;8.60;63.90
19050;DHT22;9657;45.940;12.840;2023-02-11T04:13:35;8.50;63.90
19050;DHT22;9657;45.940;12.840;2023-02-11T04:16:03;8.50;63.90
19050;DHT22;9657;45.940;12.840;2023-02-11T04:18:30;8.50;63.90
19050;DHT22;9657;45.940;12.840;2023-02-11T04:20:57;8.50;63.90
19050;DHT22;9657;45.940;12.840;2023-02-11T04:23:25;8.50;63.90
19050;DHT22;9657;45.940;12.840;2023-02-11T04:25:52;8.50;63.90
19050;DHT22;9657;45.940;12.840;2023-02-11T04:28:19;8.50;63.90
19050;DHT22;9657;45.940;12.840;2023-02-11T04:30:48;8.50;63.80
19050;DHT22;9657;45.940;12.840;2023-02-11T04:33:15;8.50;63.90
19050;DHT22;9657;45.940;12.840;2023-02-11T04:35:42;8.50;63.80
19050;DHT22;9657;45.940;12.840;2023-02-11T04:38:09;8.50;63.60
19050;DHT22;9657;45.940;12.840;2023-02-11T04:40:37;8.50;63.60
19050;DHT22;9657;45.940;12.840;2023-02-11T04:43:04;8.50;63.70
19050;DHT22;9657;45.940;12.840;2023-02-11T04:45:31;8.50;63.70
19050;DHT22;9657;45.940;12.840;2023-02-11T04:48:00;8.50;63.70
19050;DHT22;9657;45.940;12.840;2023-02-11T04:50:27;8.50;63.40
19050;DHT22;9657;45.940;12.840;2023-02-11T04:52:54;8.50;63.60
19050;DHT22;9657;45.940;12.840;2023-02-11T04:55:21;8.50;63.60
19050;DHT22;9657;45.940;12.840;2023-02-11T04:57:49;8.50;63.60
19050;DHT22;9657;45.940;12.840;2023-02-11T05:00:16;8.50;63.40
19050;DHT22;9657;45.940;12.840;2023-02-11T05:02:43;8.50;63.50
19050;DHT22;9657;45.940;12.840;2023-02-11T05:05:10;8.50;63.50
19050;DHT22;9657;45.940;12.840;2023-02-11T05:07:37;8.50;63.60
19050;DHT22;9657;45.940;12.840;2023-02-11T05:10:05;8.50;63.40
19050;DHT22;9657;45.940;12.840;2023-02-11T05:12:32;8.50;63.50
19050;DHT22;9657;45.940;12.840;2023-02-11T05:15:00;8.50;63.60
19050;DHT22;9657;45.940;12.840;2023-02-11T05:17:27;8.50;63.50
19050;DHT22;9657;45.940;12.840;2023-02-11T05:19:54;8.40;63.50
19050;DHT22;9657;45.940;12.840;2023-02-11T05:22:21;8.50;63.50
19050;DHT22;9657;45.940;12.840;2023-02-11T05:24:49;8.50;64.20
19050;DHT22;9657;45.940;12.840;2023-02-11T05:27:16;8.50;63.50
19050;DHT22;9657;45.940;12.840;2023-02-11T05:29:43;8.50;63.50
19050;DHT22;9657;45.940;12.840;2023-02-11T05:32:11;8.50;63.50
19050;DHT22;9657;45.940;12.840;2023-02-11T05:34:38;8.50;63.50
19050;DHT22;9657;45.940;12.840;2023-02-11T05:37:05;8.50;63.40
19050;DHT22;9657;45.940;12.840;2023-02-11T05:39:32;8.40;63.50
19050;DHT22;9657;45.940;12.840;2023-02-11T05:41:59;8.40;63.30
19050;DHT22;9657;45.940;12.840;2023-02-11T05:44:26;8.40;64.30
19050;DHT22;9657;45.940;12.840;2023-02-11T05:46:53;8.40;63.40
19050;DHT22;9657;45.940;12.840;2023-02-11T05:49:22;8.40;63.40
19050;DHT22;9657;45.940;12.840;2023-02-11T05:51:49;8.40;63.40
19050;DHT22;9657;45.940;12.840;2023-02-11T05:54:16;8.40;63.30
19050;DHT22;9657;45.940;12.840;2023-02-11T05:56:43;8.40;63.30
19050;DHT22;9657;45.940;12.840;2023-02-11T05:59:12;8.40;63.30
19050;DHT22;9657;45.940;12.840;2023-02-11T06:01:39;8.40;63.20
19050;DHT22;9657;45.940;12.840;2023-02-11T06:04:06;8.50;63.30
19050;DHT22;9657;45.940;12.840;2023-02-11T06:06:34;8.40;63.30
19050;DHT22;9657;45.940;12.840;2023-02-11T06:09:02;8.50;63.30
19050;DHT22;9657;45.940;12.840;2023-02-11T06:11:29;8.40;63.30
19050;DHT22;9657;45.940;12.840;2023-02-11T06:13:56;8.40;63.30
19050;DHT22;9657;45.940;12.840;2023-02-11T06:16:23;8.40;63.30
19050;DHT22;9657;45.940;12.840;2023-02-11T06:18:50;8.40;63.20
19050;DHT22;9657;45.940;12.840;2023-02-11T06:21:17;8.40;63.30
19050;DHT22;9657;45.940;12.840;2023-02-11T06:23:45;8.40;63.30
19050;DHT22;9657;45.940;12.840;2023-02-11T06:26:17;8.40;63.30
19050;DHT22;9657;45.940;12.840;2023-02-11T06:28:45;8.40;63.20
19050;DHT22;9657;45.940;12.840;2023-02-11T06:31:12;8.40;63.10
19050;DHT22;9657;45.940;12.840;2023-02-11T06:33:40;8.40;63.30
19050;DHT22;9657;45.940;12.840;2023-02-11T06:36:12;8.40;63.30
19050;DHT22;9657;45.940;12.840;2023-02-11T06:38:40;8.40;63.30
19050;DHT22;9657;45.940;12.840;2023-02-11T06:41:09;8.40;63.30
19050;DHT22;9657;45.940;12.840;2023-02-11T06:43:36;8.40;63.40
19050;DHT22;9657;45.940;12.840;2023-02-11T06:46:04;8.40;63.40
19050;DHT22;9657;45.940;12.840;2023-02-11T06:48:32;8.40;63.40
19050;DHT22;9657;45.940;12.840;2023-02-11T06:51:01;8.40;63.30
19050;DHT22;9657;45.940;12.840;2023-02-11T06:53:29;8.40;63.40
19050;DHT22;9657;45.940;12.840;2023-02-11T06:56:00;8.40;63.50
19050;DHT22;9657;45.940;12.840;2023-02-11T06:58:29;8.40;63.50
19050;DHT22;9657;45.940;12.840;2023-02-11T07:00:56;8.40;63.50
19050;DHT22;9657;45.940;12.840;2023-02-11T07:03:23;8.40;63.50
19050;DHT22;9657;45.940;12.840;2023-02-11T07:05:50;8.40;63.50
19050;DHT22;9657;45.940;12.840;2023-02-11T07:08:17;8.40;63.50
19050;DHT22;9657;45.940;12.840;2023-02-11T07:10:44;8.40;63.60
19050;DHT22;9657;45.940;12.840;2023-02-11T07:13:11;8.40;63.60
19050;DHT22;9657;45.940;12.840;2023-02-11T07:15:40;8.40;63.60
19050;DHT22;9657;45.940;12.840;2023-02-11T07:18:07;8.40;63.50
19050;DHT22;9657;45.940;12.840;2023-02-11T07:20:34;8.40;63.70
19050;DHT22;9657;45.940;12.840;2023-02-11T07:23:02;8.40;63.80
19050;DHT22;9657;45.940;12.840;2023-02-11T07:25:29;8.40;64.10
19050;DHT22;9657;45.940;12.840;2023-02-11T07:27:56;8.40;64.00
19050;DHT22;9657;45.940;12.840;2023-02-11T07:30:23;8.40;63.80
19050;DHT22;9657;45.940;12.840;2023-02-11T07:32:51;8.40;63.90
19050;DHT22;9657;45.940;12.840;2023-02-11T07:35:18;8.40;64.30
19050;DHT22;9657;45.940;12.840;2023-02-11T07:37:45;8.40;64.80
19050;DHT22;9657;45.940;12.840;2023-02-11T07:40:12;8.40;65.20
19050;DHT22;9657;45.940;12.840;2023-02-11T07:42:39;8.40;65.60
19050;DHT22;9657;45.940;12.840;2023-02-11T07:45:07;8.40;65.70
19050;DHT22;9657;45.940;12.840;2023-02-11T07:47:34;8.40;66.00
19050;DHT22;9657;45.940;12.840;2023-02-11T07:50:04;8.40;66.00
19050;DHT22;9657;45.940;12.840;2023-02-11T07:52:31;8.40;65.80
19050;DHT22;9657;45.940;12.840;2023-02-11T07:54:58;8.40;65.70
19050;DHT22;9657;45.940;12.840;2023-02-11T07:57:25;8.40;65.60
19050;DHT22;9657;45.940;12.840;2023-02-11T07:59:52;8.40;65.60
19050;DHT22;9657;45.940;12.840;2023-02-11T08:02:19;8.40;65.40
19050;DHT22;9657;45.940;12.840;2023-02-11T08:04:46;8.40;65.30
19050;DHT22;9657;45.940;12.840;2023-02-11T08:07:17;8.40;65.40
19050;DHT22;9657;45.940;12.840;2023-02-11T08:09:44;8.40;65.40
19050;DHT22;9657;45.940;12.840;2023-02-11T08:12:11;8.40;65.40
19050;DHT22;9657;45.940;12.840;2023-02-11T08:14:38;8.40;65.50
19050;DHT22;9657;45.940;12.840;2023-02-11T08:17:05;8.40;65.40
19050;DHT22;9657;45.940;12.840;2023-02-11T08:19:32;8.50;65.50
19050;DHT22;9657;45.940;12.840;2023-02-11T08:21:59;8.40;65.50
19050;DHT22;9657;45.940;12.840;2023-02-11T08:24:27;8.40;65.50
19050;DHT22;9657;45.940;12.840;2023-02-11T08:26:54;8.40;65.50
19050;DHT22;9657;45.940;12.840;2023-02-11T08:29:22;8.40;65.50
19050;DHT22;9657;45.940;12.840;2023-02-11T08:31:49;8.40;65.60
19050;DHT22;9657;45.940;12.840;2023-02-11T08:34:16;8.40;65.60
19050;DHT22;9657;45.940;12.840;2023-02-11T08:36:45;8.50;65.70
19050;DHT22;9657;45.940;12.840;2023-02-11T08:39:15;8.50;65.70
19050;DHT22;9657;45.940;12.840;2023-02-11T08:41:43;8.50;65.70
19050;DHT22;9657;45.940;12.840;2023-02-11T08:44:11;8.40;65.60
19050;DHT22;9657;45.940;12.840;2023-02-11T08:46:38;8.40;65.60
19050;DHT22;9657;45.940;12.840;2023-02-11T08:49:05;8.40;65.70
19050;DHT22;9657;45.940;12.840;2023-02-11T08:51:32;8.50;65.80
19050;DHT22;9657;45.940;12.840;2023-02-11T08:54:00;8.40;65.70
19050;DHT22;9657;45.940;12.840;2023-02-11T08:56:27;8.40;65.70
19050;DHT22;9657;45.940;12.840;2023-02-11T08:58:57;8.50;65.80
19050;DHT22;9657;45.940;12.840;2023-02-11T09:01:26;8.40;65.70
19050;DHT22;9657;45.940;12.840;2023-02-11T09:03:54;8.40;65.70
19050;DHT22;9657;45.940;12.840;2023-02-11T09:06:22;8.50;65.80
19050;DHT22;9657;45.940;12.840;2023-02-11T09:08:51;8.50;65.90
19050;DHT22;9657;45.940;12.840;2023-02-11T09:11:20;8.50;65.90
19050;DHT22;9657;45.940;12.840;2023-02-11T09:13:48;8.50;65.90
19050;DHT22;9657;45.940;12.840;2023-02-11T09:16:18;8.50;65.80
19050;DHT22;9657;45.940;12.840;2023-02-11T09:18:46;8.50;65.80
19050;DHT22;9657;45.940;12.840;2023-02-11T09:21:15;8.50;65.90
19050;DHT22;9657;45.940;12.840;2023-02-11T09:23:43;8.50;65.80
19050;DHT22;9657;45.940;12.840;2023-02-11T09:26:14;8.50;65.90
19050;DHT22;9657;45.940;12.840;2023-02-11T09:28:42;8.50;65.80
19050;DHT22;9657;45.940;12.840;2023-02-11T09:31:10;8.50;65.80
19050;DHT22;9657;45.940;12.840;2023-02-11T09:33:40;8.50;65.80
19050;DHT22;9657;45.940;12.840;2023-02-11T09:36:14;8.50;65.80
19050;DHT22;9657;45.940;12.840;2023-02-11T09:38:41;8.50;65.90
19050;DHT22;9657;45.940;12.840;2023-02-11T09:44:15;8.50;65.70
19050;DHT22;9657;45.940;12.840;2023-02-11T09:46:49;8.50;65.80
19050;DHT22;9657;45.940;12.840;2023-02-11T09:49:22;8.50;65.80
19050;DHT22;9657;45.940;12.840;2023-02-11T09:51:55;8.50;65.80
19050;DHT22;9657;45.940;12.840;2023-02-11T09:54:28;8.50;65.90
19050;DHT22;9657;45.940;12.840;2023-02-11T09:56:57;8.50;65.70
19050;DHT22;9657;45.940;12.840;2023-02-11T09:59:24;8.50;65.80
19050;DHT22;9657;45.940;12.840;2023-02-11T10:01:54;8.50;66.00
19050;DHT22;9657;45.940;12.840;2023-02-11T10:04:36;8.50;66.10
19050;DHT22;9657;45.940;12.840;2023-02-11T10:07:14;8.50;66.90
19050;DHT22;9657;45.940;12.840;2023-02-11T10:09:55;8.50;67.90
19050;DHT22;9657;45.940;12.840;2023-02-11T10:12:43;8.50;67.00
19050;DHT22;9657;45.940;12.840;2023-02-11T10:15:19;8.60;66.90
19050;DHT22;9657;45.940;12.840;2023-02-11T10:18:00;8.60;66.80
19050;DHT22;9657;45.940;12.840;2023-02-11T10:20:34;8.60;66.70
19050;DHT22;9657;45.940;12.840;2023-02-11T10:23:09;8.60;66.60
19050;DHT22;9657;45.940;12.840;2023-02-11T10:25:42;8.60;66.60
19050;DHT22;9657;45.940;12.840;2023-02-11T10:28:12;8.60;66.70
19050;DHT22;9657;45.940;12.840;2023-02-11T10:30:42;8.60;66.90
19050;DHT22;9657;45.940;12.840;2023-02-11T10:33:16;8.60;67.80
19050;DHT22;9657;45.940;12.840;2023-02-11T10:35:47;8.60;68.40
19050;DHT22;9657;45.940;12.840;2023-02-11T10:38:14;8.60;68.80
19050;DHT22;9657;45.940;12.840;2023-02-11T10:40:41;8.60;68.90
19050;DHT22;9657;45.940;12.840;2023-02-11T10:43:10;8.60;68.90
19050;DHT22;9657;45.940;12.840;2023-02-11T10:45:42;8.60;68.80
19050;DHT22;9657;45.940;12.840;2023-02-11T10:48:38;8.70;68.80
19050;DHT22;9657;45.940;12.840;2023-02-11T10:51:18;8.70;68.60
19050;DHT22;9657;45.940;12.840;2023-02-11T10:53:46;8.60;68.30
19050;DHT22;9657;45.940;12.840;2023-02-11T10:56:21;8.70;68.20
19050;DHT22;9657;45.940;12.840;2023-02-11T10:58:56;8.70;68.10
19050;DHT22;9657;45.940;12.840;2023-02-11T11:01:37;8.70;68.00
19050;DHT22;9657;45.940;12.840;2023-02-11T11:04:05;8.70;67.90
19050;DHT22;9657;45.940;12.840;2023-02-11T11:06:34;8.70;67.70
19050;DHT22;9657;45.940;12.840;2023-02-11T11:09:01;8.70;67.60
19050;DHT22;9657;45.940;12.840;2023-02-11T11:11:29;8.70;67.60
19050;DHT22;9657;45.940;12.840;2023-02-11T11:13:57;8.70;67.50
19050;DHT22;9657;45.940;12.840;2023-02-11T11:16:26;8.70;67.40
19050;DHT22;9657;45.940;12.840;2023-02-11T11:19:14;8.70;67.40
19050;DHT22;9657;45.940;12.840;2023-02-11T11:21:44;8.70;67.30
19050;DHT22;9657;45.940;12.840;2023-02-11T11:24:17;8.70;67.30
19050;DHT22;9657;45.940;12.840;2023-02-11T11:26:46;8.70;67.10
19050;DHT22;9657;45.940;12.840;2023-02-11T11:29:16;8.70;67.10
19050;DHT22;9657;45.940;12.840;2023-02-11T11:31:47;8.70;67.00
19050;DHT22;9657;45.940;12.840;2023-02-11T11:34:21;8.70;67.10
19050;DHT22;9657;45.940;12.840;2023-02-11T11:36:50;8.80;67.20
19050;DHT22;9657;45.940;12.840;2023-02-11T11:39:21;8.80;67.30
19050;DHT22;9657;45.940;12.840;2023-02-11T11:41:51;8.70;67.30
19050;DHT22;9657;45.940;12.840;2023-02-11T11:44:24;8.80;68.10
19050;DHT22;9657;45.940;12.840;2023-02-11T11:47:18;8.80;67.40
19050;DHT22;9657;45.940;12.840;2023-02-11T11:49:52;8.80;67.30
19050;DHT22;9657;45.940;12.840;2023-02-11T11:52:33;8.80;67.30
19050;DHT22;9657;45.940;12.840;2023-02-11T11:55:05;8.80;67.20
19050;DHT22;9657;45.940;12.840;2023-02-11T11:57:37;8.80;67.10
19050;DHT22;9657;45.940;12.840;2023-02-11T12:00:13;8.80;67.00
19050;DHT22;9657;45.940;12.840;2023-02-11T12:03:27;8.80;66.80
19050;DHT22;9657;45.940;12.840;2023-02-11T12:06:11;8.80;66.80
19050;DHT22;9657;45.940;12.840;2023-02-11T12:08:52;8.80;66.70
19050;DHT22;9657;45.940;12.840;2023-02-11T12:11:27;8.80;66.70
19050;DHT22;9657;45.940;12.840;2023-02-11T12:14:05;8.80;66.80
19050;DHT22;9657;45.940;12.840;2023-02-11T12:16:42;8.80;66.80
19050;DHT22;9657;45.940;12.840;2023-02-11T12:19:43;8.80;66.80
19050;DHT22;9657;45.940;12.840;2023-02-11T12:22:22;8.80;66.80
19050;DHT22;9657;45.940;12.840;2023-02-11T12:25:13;8.90;66.80
19050;DHT22;9657;45.940;12.840;2023-02-11T12:27:51;8.90;66.80
19050;DHT22;9657;45.940;12.840;2023-02-11T12:30:44;8.90;66.70
19050;DHT22;9657;45.940;12.840;2023-02-11T12:33:23;8.90;66.70
19050;DHT22;9657;45.940;12.840;2023-02-11T12:35:57;8.90;66.60
19050;DHT22;9657;45.940;12.840;2023-02-11T12:38:47;8.90;66.60
19050;DHT22;9657;45.940;12.840;2023-02-11T12:41:33;8.90;66.60
19050;DHT22;9657;45.940;12.840;2023-02-11T12:44:28;8.90;66.60
19050;DHT22;9657;45.940;12.840;2023-02-11T12:47:07;8.90;66.60
19050;DHT22;9657;45.940;12.840;2023-02-11T12:49:55;8.90;66.60
19050;DHT22;9657;45.940;12.840;2023-02-11T12:52:33;8.90;66.50
19050;DHT22;9657;45.940;12.840;2023-02-11T12:55:09;8.90;66.50
19050;DHT22;9657;45.940;12.840;2023-02-11T12:57:39;8.90;66.50
19050;DHT22;9657;45.940;12.840;2023-02-11T13:00:15;8.90;66.50
19050;DHT22;9657;45.940;12.840;2023-02-11T13:02:48;8.90;66.50
19050;DHT22;9657;45.940;12.840;2023-02-11T13:05:26;8.90;66.50
19050;DHT22;9657;45.940;12.840;2023-02-11T13:07:59;8.90;66.40
19050;DHT22;9657;45.940;12.840;2023-02-11T13:10:32;8.90;66.30
19050;DHT22;9657;45.940;12.840;2023-02-11T13:13:04;8.90;66.30
19050;DHT22;9657;45.940;12.840;2023-02-11T13:15:45;8.90;66.40
19050;DHT22;9657;45.940;12.840;2023-02-11T13:18:23;9.00;66.60
19050;DHT22;9657;45.940;12.840;2023-02-11T13:20:54;9.00;66.60
19050;DHT22;9657;45.940;12.840;2023-02-11T13:23:33;9.00;66.60
19050;DHT22;9657;45.940;12.840;2023-02-11T13:26:09;9.00;66.60
19050;DHT22;9657;45.940;12.840;2023-02-11T13:28:45;9.00;66.60
19050;DHT22;9657;45.940;12.840;2023-02-11T13:31:13;9.00;66.50
19050;DHT22;9657;45.940;12.840;2023-02-11T13:33:42;9.00;66.50
19050;DHT22;9657;45.940;12.840;2023-02-11T13:38:52;9.00;66.40
19050;DHT22;9657;45.940;12.840;2023-02-11T13:41:23;9.00;66.40
19050;DHT22;9657;45.940;12.840;2023-02-11T13:44:02;9.00;66.40
19050;DHT22;9657;45.940;12.840;2023-02-11T13:46:49;9.00;66.30
19050;DHT22;9657;45.940;12.840;2023-02-11T13:49:21;9.00;66.30
19050;DHT22;9657;45.940;12.840;2023-02-11T13:51:49;9.00;66.30
19050;DHT22;9657;45.940;12.840;2023-02-11T13:54:29;9.00;66.30
19050;DHT22;9657;45.940;12.840;2023-02-11T13:57:28;9.00;66.20
19050;DHT22;9657;45.940;12.840;2023-02-11T13:59:58;9.00;66.30
19050;DHT22;9657;45.940;12.840;2023-02-11T14:02:28;9.00;66.30
19050;DHT22;9657;45.940;12.840;2023-02-11T14:05:28;9.00;66.30
19050;DHT22;9657;45.940;12.840;2023-02-11T14:08:22;9.00;66.30
19050;DHT22;9657;45.940;12.840;2023-02-11T14:11:10;9.00;66.20
19050;DHT22;9657;45.940;12.840;2023-02-11T14:14:14;9.00;66.60
19050;DHT22;9657;45.940;12.840;2023-02-11T14:19:49;9.10;66.60
19050;DHT22;9657;45.940;12.840;2023-02-11T14:22:21;9.10;66.50
19050;DHT22;9657;45.940;12.840;2023-02-11T14:24:55;9.10;66.50
19050;DHT22;9657;45.940;12.840;2023-02-11T14:27:33;9.10;66.40
19050;DHT22;9657;45.940;12.840;2023-02-11T14:30:16;9.10;66.40
19050;DHT22;9657;45.940;12.840;2023-02-11T14:32:56;9.10;66.40
19050;DHT22;9657;45.940;12.840;2023-02-11T14:35:33;9.10;66.30
19050;DHT22;9657;45.940;12.840;2023-02-11T14:38:06;9.10;66.30
19050;DHT22;9657;45.940;12.840;2023-02-11T14:40:44;9.10;66.30
19050;DHT22;9657;45.940;12.840;2023-02-11T14:43:16;9.10;66.50
19050;DHT22;9657;45.940;12.840;2023-02-11T14:45:49;9.10;66.20
19050;DHT22;9657;45.940;12.840;2023-02-11T14:48:18;9.10;66.20
19050;DHT22;9657;45.940;12.840;2023-02-11T14:50:49;9.10;66.30
19050;DHT22;9657;45.940;12.840;2023-02-11T14:53:19;9.10;66.20
19050;DHT22;9657;45.940;12.840;2023-02-11T14:55:49;9.10;66.20
19050;DHT22;9657;45.940;12.840;2023-02-11T14:58:18;9.10;66.20
19050;DHT22;9657;45.940;12.840;2023-02-11T15:00:51;9.20;66.30
19050;DHT22;9657;45.940;12.840;2023-02-11T15:03:27;9.20;66.30
19050;DHT22;9657;45.940;12.840;2023-02-11T15:05:58;9.20;66.30
19050;DHT22;9657;45.940;12.840;2023-02-11T15:08:26;9.20;66.30
19050;DHT22;9657;45.940;12.840;2023-02-11T15:10:55;9.20;66.30
19050;DHT22;9657;45.940;12.840;2023-02-11T15:13:24;9.20;66.30
19050;DHT22;9657;45.940;12.840;2023-02-11T15:15:59;9.20;66.30
19050;DHT22;9657;45.940;12.840;2023-02-11T15:18:33;9.20;66.30
19050;DHT22;9657;45.940;12.840;2023-02-11T15:21:03;9.20;66.20
19050;DHT22;9657;45.940;12.840;2023-02-11T15:23:31;9.10;66.20
19050;DHT22;9657;45.940;12.840;2023-02-11T15:25:58;9.20;66.30
19050;DHT22;9657;45.940;12.840;2023-02-11T15:28:32;9.20;66.20
19050;DHT22;9657;45.940;12.840;2023-02-11T15:31:01;9.20;66.20
19050;DHT22;9657;45.940;12.840;2023-02-11T15:33:30;9.20;66.20
19050;DHT22;9657;45.940;12.840;2023-02-11T15:35:58;9.20;66.20
19050;DHT22;9657;45.940;12.840;2023-02-11T15:38:27;9.20;66.20
19050;DHT22;9657;45.940;12.840;2023-02-11T15:40:56;9.20;66.20
19050;DHT22;9657;45.940;12.840;2023-02-11T15:43:39;9.20;66.20
19050;DHT22;9657;45.940;12.840;2023-02-11T15:46:09;9.20;66.30
19050;DHT22;9657;45.940;12.840;2023-02-11T15:48:40;9.20;66.30
19050;DHT22;9657;45.940;12.840;2023-02-11T15:51:18;9.20;66.30
19050;DHT22;9657;45.940;12.840;2023-02-11T15:53:50;9.20;66.30
19050;DHT22;9657;45.940;12.840;2023-02-11T15:56:24;9.20;66.50
19050;DHT22;9657;45.940;12.840;2023-02-11T15:58:56;9.20;66.90
19050;DHT22;9657;45.940;12.840;2023-02-11T16:01:29;9.20;67.10
19050;DHT22;9657;45.940;12.840;2023-02-11T16:03:56;9.20;67.30
19050;DHT22;9657;45.940;12.840;2023-02-11T16:06:25;9.20;67.30
19050;DHT22;9657;45.940;12.840;2023-02-11T16:09:00;9.20;67.30
19050;DHT22;9657;45.940;12.840;2023-02-11T16:11:29;9.20;67.30
19050;DHT22;9657;45.940;12.840;2023-02-11T16:13:57;9.20;67.20
19050;DHT22;9657;45.940;12.840;2023-02-11T16:16:28;9.20;67.20
19050;DHT22;9657;45.940;12.840;2023-02-11T16:18:56;9.20;67.20
19050;DHT22;9657;45.940;12.840;2023-02-11T16:21:29;9.20;68.00
19050;DHT22;9657;45.940;12.840;2023-02-11T16:24:00;9.20;67.10